Time;durP1;ratioP1;P1;durP2;ratioP2;P2;SDS_P1;SDS_P2;PMS_P1;PMS_P2;Temp;Humidity;BMP_temperature;BMP_pressure;BME280_temperature;BME280_humidity;BME280_pressure;Samples;Min_cycle;Max_cycle;Signal;HPM_P1;HPM_P2
2024/01/03 00:00:57;;;;;;;;;8.00;7.00;;;;;11.80;100.00;96903.72;6197314;28;96477;-59
2024/01/03 00:04:00;;;;;;;;;7.40;7.00;;;;;11.82;100.00;96899.66;6199559;28;96510;-59
2024/01/03 00:07:06;;;;;;;;;7.00;6.40;;;;;11.84;100.00;96896.69;6206850;28;96950;-59
2024/01/03 00:10:24;;;;;;;;;8.00;8.00;;;;;11.83;100.00;96895.88;6214910;28;96379;-59
2024/01/03 00:14:01;;;;;;;;;8.00;7.00;;;;;11.84;100.00;96900.19;6215515;28;96384;-59
2024/01/03 00:17:05;;;;;;;;;6.00;5.00;;;;;11.86;100.00;96892.63;6224876;28;96395;-56
2024/01/03 00:20:09;;;;;;;;;6.60;5.60;;;;;11.85;100.00;96888.31;6212866;28;96705;-57
2024/01/03 00:23:16;;;;;;;;;6.60;6.00;;;;;11.86;100.00;96884.53;6214094;28;96343;-56
2024/01/03 00:26:20;;;;;;;;;6.00;5.80;;;;;11.85;100.00;96891.00;6226541;28;96841;-56
2024/01/03 00:29:52;;;;;;;;;6.75;6.75;;;;;11.85;100.00;96874.00;6221832;28;96359;-56
2024/01/03 00:32:55;;;;;;;;;7.00;7.00;;;;;11.80;100.00;96869.44;6239960;28;96255;-56
2024/01/03 00:36:07;;;;;;;;;6.00;6.00;;;;;11.76;100.00;96860.28;6234694;28;96332;-56
2024/01/03 00:39:12;;;;;;;;;7.00;6.00;;;;;11.76;100.00;96871.09;6222790;28;96318;-56
2024/01/03 00:42:17;;;;;;;;;5.00;5.00;;;;;11.71;100.00;96854.88;6197540;28;96245;-56
2024/01/03 00:45:21;;;;;;;;;7.80;6.80;;;;;11.71;100.00;96858.38;6196930;28;96275;-56
2024/01/03 00:48:25;;;;;;;;;5.00;5.00;;;;;11.72;100.00;96851.09;6196809;28;96966;-56
2024/01/03 00:51:28;;;;;;;;;4.20;3.20;;;;;11.74;100.00;96854.34;6196911;28;96416;-56
2024/01/03 00:54:32;;;;;;;;;4.00;3.20;;;;;11.74;100.00;96848.94;6214860;28;97452;-56
2024/01/03 00:57:35;;;;;;;;;3.00;3.00;;;;;11.76;100.00;96844.09;6219275;28;96627;-56
2024/01/03 01:00:40;;;;;;;;;4.00;4.00;;;;;11.75;100.00;96844.34;6227534;28;97043;-56
2024/01/03 01:03:43;;;;;;;;;5.60;5.60;;;;;11.76;100.00;96841.38;6239366;28;96459;-56
2024/01/03 01:06:46;;;;;;;;;5.60;5.00;;;;;11.77;100.00;96832.22;6235990;28;96360;-56
2024/01/03 01:09:49;;;;;;;;;5.00;3.33;;;;;11.73;100.00;96833.81;6238582;28;96353;-56
2024/01/03 01:12:53;;;;;;;;;4.20;3.20;;;;;11.67;100.00;96827.66;6237931;28;96798;-56
2024/01/03 01:15:57;;;;;;;;;5.00;5.00;;;;;11.64;100.00;96824.69;6216922;28;96344;-56
2024/01/03 01:19:00;;;;;;;;;5.80;5.80;;;;;11.62;100.00;96821.47;6226359;28;96356;-56
2024/01/03 01:22:04;;;;;;;;;7.00;6.00;;;;;11.64;100.00;96805.78;6238468;28;96495;-58
2024/01/03 01:25:08;;;;;;;;;6.00;6.00;;;;;11.63;100.00;96804.97;6238489;28;97108;-56
2024/01/03 01:28:11;;;;;;;;;6.40;6.00;;;;;11.66;100.00;96800.94;6212090;28;96296;-56
2024/01/03 01:31:15;;;;;;;;;5.00;4.80;;;;;11.65;100.00;96794.72;6210665;28;96344;-56
2024/01/03 01:34:18;;;;;;;;;6.00;5.00;;;;;11.64;100.00;96781.50;6209788;28;96367;-56
2024/01/03 01:37:21;;;;;;;;;6.00;5.00;;;;;11.59;100.00;96782.34;6211232;28;96470;-56
2024/01/03 01:40:24;;;;;;;;;5.80;5.00;;;;;11.54;100.00;96776.16;6211380;28;96281;-55
2024/01/03 01:43:28;;;;;;;;;3.20;3.20;;;;;11.51;100.00;96765.94;6217608;28;97267;-55
2024/01/03 01:46:34;;;;;;;;;4.40;3.40;;;;;11.47;100.00;96760.28;6195456;28;96387;-56
2024/01/03 01:49:39;;;;;;;;;4.00;4.00;;;;;11.46;100.00;96760.56;6242609;28;96761;-56
2024/01/03 01:52:44;;;;;;;;;4.00;4.00;;;;;11.44;100.00;96746.53;6244201;28;96295;-56
2024/01/03 01:55:47;;;;;;;;;4.00;4.00;;;;;11.45;100.00;96740.88;6242463;28;96375;-56
2024/01/03 01:58:51;;;;;;;;;3.60;3.60;;;;;11.48;100.00;96742.22;6209284;28;96330;-56
2024/01/03 02:01:57;;;;;;;;;4.00;3.00;;;;;11.49;100.00;96730.31;6210916;22;96333;-57
2024/01/03 02:05:00;;;;;;;;;2.60;2.00;;;;;11.50;100.00;96721.94;6265949;27;96269;-56
2024/01/03 02:08:08;;;;;;;;;4.00;4.00;;;;;11.53;100.00;96718.69;6250024;27;96661;-56
2024/01/03 02:11:12;;;;;;;;;4.00;4.00;;;;;11.59;100.00;96719.47;6267523;27;96281;-55
2024/01/03 02:14:15;;;;;;;;;4.00;4.00;;;;;11.63;100.00;96709.75;6251224;27;96835;-56
2024/01/03 02:17:22;;;;;;;;;2.60;2.60;;;;;11.63;100.00;96702.44;6264788;28;96339;-56
2024/01/03 02:20:25;;;;;;;;;3.20;3.20;;;;;11.63;100.00;96704.34;6264332;28;96346;-56
2024/01/03 02:23:31;;;;;;;;;4.00;3.00;;;;;11.62;100.00;96705.44;6271562;27;96464;-57
2024/01/03 02:26:34;;;;;;;;;2.50;2.50;;;;;11.61;100.00;96706.50;6280607;27;96357;-56
2024/01/03 02:29:37;;;;;;;;;2.00;2.00;;;;;11.62;100.00;96705.44;6289965;27;96013;-57
2024/01/03 02:32:40;;;;;;;;;2.00;2.00;;;;;11.60;100.00;96699.50;6251201;27;96329;-56
2024/01/03 02:35:43;;;;;;;;;1.80;1.80;;;;;11.57;100.00;96698.19;6290284;27;96205;-56
2024/01/03 02:38:51;;;;;;;;;3.00;3.00;;;;;11.59;100.00;96697.88;6275262;27;96461;-56
2024/01/03 02:41:54;;;;;;;;;3.00;3.00;;;;;11.59;100.00;96689.78;6266536;28;96786;-56
2024/01/03 02:44:57;;;;;;;;;3.00;3.00;;;;;11.60;100.00;96681.41;6283324;27;96309;-56
2024/01/03 02:48:02;;;;;;;;;3.00;3.00;;;;;11.54;100.00;96679.03;6291996;27;96173;-57
2024/01/03 02:51:05;;;;;;;;;3.00;2.00;;;;;11.50;100.00;96677.97;6272281;27;96384;-56
2024/01/03 02:54:09;;;;;;;;;2.00;2.00;;;;;11.44;100.00;96674.50;6278878;27;96854;-56
2024/01/03 02:57:13;;;;;;;;;3.00;3.00;;;;;11.41;100.00;96672.38;6266181;28;96276;-56
2024/01/03 03:00:16;;;;;;;;;2.00;2.00;;;;;11.46;100.00;96663.44;6248512;28;96266;-56
2024/01/03 03:03:19;;;;;;;;;1.00;1.00;;;;;11.18;100.00;96652.31;6261164;27;96361;-56
2024/01/03 03:06:22;;;;;;;;;3.00;3.00;;;;;11.38;100.00;96666.75;6253705;27;96796;-56
2024/01/03 03:09:27;;;;;;;;;2.40;2.00;;;;;11.39;100.00;96669.16;6267624;27;96348;-56
2024/01/03 03:12:30;;;;;;;;;1.50;1.50;;;;;11.28;100.00;96664.94;6267571;27;96382;-56
2024/01/03 03:15:33;;;;;;;;;2.00;2.00;;;;;11.39;100.00;96652.16;6285039;27;96243;-56
2024/01/03 03:18:36;;;;;;;;;2.00;2.00;;;;;11.39;100.00;96657.53;6288601;27;96226;-56
2024/01/03 03:21:39;;;;;;;;;2.25;2.25;;;;;11.44;100.00;96654.81;6289867;27;96350;-57
2024/01/03 03:24:44;;;;;;;;;1.20;1.20;;;;;11.51;100.00;96647.22;6271714;27;96348;-56
2024/01/03 03:27:47;;;;;;;;;2.00;2.00;;;;;11.50;100.00;96638.31;6279169;27;96842;-56
2024/01/03 03:30:50;;;;;;;;;1.00;1.00;;;;;11.42;100.00;96636.22;6265576;28;96364;-56
2024/01/03 03:33:53;;;;;;;;;1.00;1.00;;;;;11.49;100.00;96634.00;6265382;28;96305;-56
2024/01/03 03:36:56;;;;;;;;;1.50;1.50;;;;;11.54;100.00;96625.06;6268419;27;96142;-56
2024/01/03 03:40:01;;;;;;;;;2.00;2.00;;;;;11.61;100.00;96628.25;6272680;27;96223;-56
2024/01/03 03:43:04;;;;;;;;;1.00;1.00;;;;;11.68;100.00;96628.72;6246957;28;96788;-56
2024/01/03 03:46:07;;;;;;;;;3.00;3.00;;;;;11.70;100.00;96631.94;6266623;27;97005;-57
2024/01/03 03:49:10;;;;;;;;;2.20;1.20;;;;;11.80;100.00;96642.69;6283406;27;96332;-56
2024/01/03 03:52:14;;;;;;;;;2.00;2.00;;;;;11.67;100.00;96624.44;6285021;27;96472;-56
2024/01/03 03:55:18;;;;;;;;;0.00;0.00;;;;;11.82;100.00;96637.00;6273857;27;96321;-57
2024/01/03 03:58:21;;;;;;;;;2.00;2.00;;;;;11.80;100.00;96634.59;6269544;27;96507;-56
2024/01/03 04:01:24;;;;;;;;;2.00;2.00;;;;;11.93;100.00;96642.00;6283446;27;96288;-57
2024/01/03 04:04:27;;;;;;;;;2.00;2.00;;;;;11.90;100.00;96633.69;6287862;27;96233;-56
2024/01/03 04:07:31;;;;;;;;;2.00;2.00;;;;;11.90;100.00;96634.50;6275302;27;96346;-56
2024/01/03 04:10:36;;;;;;;;;0.00;0.00;;;;;11.88;100.00;96633.97;6263099;27;97646;-56
2024/01/03 04:13:40;;;;;;;;;1.00;1.00;;;;;11.95;100.00;96629.03;6269621;27;96566;-56
2024/01/03 04:16:43;;;;;;;;;2.00;2.00;;;;;11.97;100.00;96643.03;6266928;27;96356;-57
2024/01/03 04:19:46;;;;;;;;;0.00;0.00;;;;;11.97;100.00;96628.78;6275171;27;96282;-56
2024/01/03 04:22:49;;;;;;;;;1.00;1.00;;;;;11.95;100.00;96637.16;6270618;27;96296;-56
2024/01/03 04:25:54;;;;;;;;;1.00;1.00;;;;;11.96;100.00;96641.47;6274889;27;96924;-56
2024/01/03 04:28:57;;;;;;;;;1.00;1.00;;;;;12.03;100.00;96646.50;6283018;27;96279;-57
2024/01/03 04:32:00;;;;;;;;;2.00;2.00;;;;;11.98;100.00;96631.16;6274953;27;96287;-56
2024/01/03 04:35:04;;;;;;;;;1.60;1.60;;;;;12.09;100.00;96634.56;6284149;27;96749;-56
2024/01/03 04:38:07;;;;;;;;;1.40;1.40;;;;;12.13;100.00;96643.72;6265575;27;96339;-56
2024/01/03 04:41:12;;;;;;;;;1.00;1.00;;;;;12.17;100.00;96646.66;6275398;27;96366;-56
2024/01/03 04:44:15;;;;;;;;;2.00;2.00;;;;;12.19;100.00;96649.88;6274470;27;96291;-56
2024/01/03 04:47:18;;;;;;;;;0.00;0.00;;;;;12.19;100.00;96647.16;6276173;27;96449;-58
2024/01/03 04:50:21;;;;;;;;;1.00;1.00;;;;;12.19;100.00;96645.28;6271334;27;96601;-57
2024/01/03 04:53:24;;;;;;;;;1.00;1.00;;;;;12.20;100.00;96644.19;6268328;27;96250;-56
2024/01/03 04:56:30;;;;;;;;;2.00;2.00;;;;;12.24;100.00;96645.22;6269912;27;96343;-57
2024/01/03 04:59:33;;;;;;;;;3.00;2.00;;;;;12.27;100.00;96641.94;6268437;27;96352;-57
2024/01/03 05:02:36;;;;;;;;;2.00;2.00;;;;;12.30;100.00;96656.78;6272363;27;96639;-57
2024/01/03 05:05:40;;;;;;;;;2.00;2.00;;;;;12.31;100.00;96658.41;6278330;27;96602;-57
2024/01/03 05:08:43;;;;;;;;;1.00;1.00;;;;;12.32;100.00;96649.97;6269246;27;96288;-56
2024/01/03 05:11:48;;;;;;;;;1.00;1.00;;;;;12.25;100.00;96657.63;6267808;27;96378;-57
2024/01/03 05:14:51;;;;;;;;;1.00;1.00;;;;;12.29;100.00;96653.28;6269507;27;96398;-56
2024/01/03 05:17:54;;;;;;;;;1.00;1.00;;;;;12.32;100.00;96654.56;6260988;28;97082;-56
2024/01/03 05:20:57;;;;;;;;;2.00;1.00;;;;;12.36;100.00;96653.75;6265317;27;96291;-56
2024/01/03 05:24:00;;;;;;;;;2.00;2.00;;;;;12.40;100.00;96651.25;6264224;28;96308;-56
2024/01/03 05:27:05;;;;;;;;;1.40;1.40;;;;;12.44;100.00;96663.09;6266886;27;96298;-56
2024/01/03 05:30:09;;;;;;;;;2.00;2.00;;;;;12.41;100.00;96653.66;6245491;27;98813;-57
2024/01/03 05:33:12;;;;;;;;;1.50;1.50;;;;;12.57;100.00;96667.81;6270131;27;98502;-57
2024/01/03 05:36:16;;;;;;;;;2.00;2.00;;;;;12.61;100.00;96668.84;6281269;27;96276;-56
2024/01/03 05:39:19;;;;;;;;;2.00;1.40;;;;;12.55;100.00;96667.31;6261276;28;96299;-56
2024/01/03 05:42:24;;;;;;;;;1.00;1.00;;;;;12.62;100.00;96670.44;6260884;27;96511;-56
2024/01/03 05:45:27;;;;;;;;;1.00;1.00;;;;;12.64;100.00;96668.28;6283135;27;96270;-57
2024/01/03 05:48:30;;;;;;;;;2.00;2.00;;;;;12.65;100.00;96666.38;6272466;27;96850;-56
2024/01/03 05:51:33;;;;;;;;;2.80;2.00;;;;;12.62;100.00;96670.44;6260929;27;96083;-57
2024/01/03 05:54:36;;;;;;;;;1.00;1.00;;;;;12.61;100.00;96665.34;6243818;27;98557;-57
2024/01/03 05:57:40;;;;;;;;;2.00;2.00;;;;;12.63;100.00;96665.84;6254612;27;98472;-56
2024/01/03 06:00:43;;;;;;;;;2.00;2.00;;;;;12.54;100.00;96663.00;6270584;27;96370;-56
2024/01/03 06:03:47;;;;;;;;;2.00;2.00;;;;;12.53;100.00;96666.78;6272666;27;96510;-56
2024/01/03 06:06:50;;;;;;;;;2.00;2.00;;;;;12.48;100.00;96666.84;6268061;27;96360;-57
2024/01/03 06:09:53;;;;;;;;;1.00;1.00;;;;;12.40;100.00;96673.69;6245967;28;96363;-56
2024/01/03 06:12:58;;;;;;;;;2.00;2.00;;;;;12.43;100.00;96667.69;6286148;27;96327;-56
2024/01/03 06:16:01;;;;;;;;;2.00;2.00;;;;;12.52;100.00;96675.97;6288531;27;96327;-56
2024/01/03 06:19:04;;;;;;;;;1.40;1.00;;;;;12.52;100.00;96681.38;6255466;27;96658;-56
2024/01/03 06:22:07;;;;;;;;;1.00;1.00;;;;;12.50;100.00;96672.78;6281261;27;96216;-56
2024/01/03 06:25:10;;;;;;;;;2.00;1.00;;;;;12.53;100.00;96681.09;6264696;27;97187;-57
2024/01/03 06:28:15;;;;;;;;;0.20;0.20;;;;;12.56;100.00;96674.31;6265211;27;96223;-56
2024/01/03 06:31:21;;;;;;;;;0.50;0.50;;;;;12.60;100.00;96688.88;6269623;27;96695;-56
2024/01/03 06:34:24;;;;;;;;;2.00;1.00;;;;;12.56;100.00;96687.81;6250584;27;96449;-56
2024/01/03 06:37:27;;;;;;;;;1.00;1.00;;;;;12.59;100.00;96677.25;6269848;27;96319;-57
2024/01/03 06:40:30;;;;;;;;;2.00;1.00;;;;;12.62;100.00;96686.66;6287219;27;96457;-58
2024/01/03 06:43:35;;;;;;;;;1.80;1.80;;;;;12.49;100.00;96671.16;6264436;27;97004;-57
2024/01/03 06:46:38;;;;;;;;;1.00;1.00;;;;;12.70;100.00;96690.66;6262437;27;96300;-58
2024/01/03 06:49:44;;;;;;;;;2.80;1.80;;;;;12.67;100.00;96689.31;6271214;27;96474;-57
2024/01/03 06:52:47;;;;;;;;;2.00;2.00;;;;;12.66;100.00;96695.03;6259540;28;96341;-57
2024/01/03 06:55:50;;;;;;;;;1.00;1.00;;;;;12.72;100.00;96697.38;6242724;28;96701;-56
2024/01/03 06:58:57;;;;;;;;;2.00;2.00;;;;;12.70;100.00;96714.97;6261791;27;96862;-57
2024/01/03 07:02:00;;;;;;;;;1.00;1.00;;;;;12.66;100.00;96703.91;6266060;28;96019;-57
2024/01/03 07:05:05;;;;;;;;;2.25;2.25;;;;;12.69;100.00;96705.25;6231583;28;96708;-56
2024/01/03 07:08:08;;;;;;;;;2.50;2.50;;;;;12.75;100.00;96704.91;6266029;28;96244;-56
2024/01/03 07:11:11;;;;;;;;;1.00;1.00;;;;;12.76;100.00;96708.41;6265734;28;96291;-56
2024/01/03 07:14:16;;;;;;;;;1.00;1.00;;;;;12.78;100.00;96717.03;6260785;27;98671;-56
2024/01/03 07:17:19;;;;;;;;;2.00;2.00;;;;;12.74;100.00;96718.72;6272879;27;96442;-56
2024/01/03 07:20:22;;;;;;;;;1.00;1.00;;;;;12.75;100.00;96713.03;6290955;27;96352;-56
2024/01/03 07:23:25;;;;;;;;;2.00;2.00;;;;;12.88;100.00;96725.84;6290767;27;96744;-56
2024/01/03 07:26:29;;;;;;;;;3.00;2.75;;;;;12.79;100.00;96734.88;6291640;27;96351;-56
2024/01/03 07:29:33;;;;;;;;;2.00;2.00;;;;;12.84;100.00;96730.22;6291798;27;96292;-56
2024/01/03 07:32:36;;;;;;;;;1.00;1.00;;;;;12.95;100.00;96718.16;6291353;27;96265;-56
2024/01/03 07:35:40;;;;;;;;;1.00;1.00;;;;;13.02;100.00;96724.03;6290996;27;96340;-56
2024/01/03 07:38:44;;;;;;;;;2.00;2.00;;;;;13.03;100.00;96733.78;6279524;27;96333;-56
2024/01/03 07:41:47;;;;;;;;;1.80;1.00;;;;;12.96;100.00;96710.88;6278090;27;96326;-56
2024/01/03 07:44:53;;;;;;;;;1.50;1.50;;;;;13.03;100.00;96728.38;6270649;27;96535;-57
2024/01/03 07:47:57;;;;;;;;;2.40;2.00;;;;;13.01;100.00;96719.72;6291445;27;96335;-56
2024/01/03 07:51:00;;;;;;;;;2.80;2.00;;;;;13.08;100.00;96729.38;6291093;27;96271;-56
2024/01/03 07:54:03;;;;;;;;;3.00;2.00;;;;;13.12;100.00;96733.97;6290827;27;96285;-56
2024/01/03 07:57:07;;;;;;;;;1.60;1.60;;;;;13.16;100.00;96723.34;6291115;27;96224;-57
2024/01/03 08:00:12;;;;;;;;;2.00;1.00;;;;;13.18;100.00;96732.81;6268792;27;96406;-56
2024/01/03 08:03:15;;;;;;;;;0.75;0.75;;;;;13.23;100.00;96743.56;6269578;27;96303;-56
2024/01/03 08:06:20;;;;;;;;;2.80;2.00;;;;;13.35;100.00;96741.22;6271687;27;96546;-56
2024/01/03 08:09:23;;;;;;;;;2.00;2.00;;;;;13.41;100.00;96752.78;6290987;27;96398;-56
2024/01/03 08:12:26;;;;;;;;;2.00;2.00;;;;;13.50;100.00;96744.81;6286099;27;96390;-55
2024/01/03 08:15:31;;;;;;;;;3.00;2.60;;;;;13.50;100.00;96747.53;6247021;28;96654;-56
2024/01/03 08:18:34;;;;;;;;;2.00;1.00;;;;;13.52;100.00;96734.50;6274114;27;97242;-56
2024/01/03 08:21:37;;;;;;;;;2.60;2.00;;;;;13.59;100.00;96741.16;6280709;27;96349;-56
2024/01/03 08:24:41;;;;;;;;;3.33;3.00;;;;;13.69;100.00;96746.41;6282547;27;96508;-56
2024/01/03 08:27:45;;;;;;;;;3.00;3.00;;;;;13.77;100.00;96742.25;6261448;27;96241;-59
2024/01/03 08:30:49;;;;;;;;;4.00;3.00;;;;;13.78;100.00;96743.88;6246630;27;96312;-59
2024/01/03 08:33:53;;;;;;;;;4.00;2.00;;;;;13.79;100.00;96750.88;6249958;27;96396;-59
2024/01/03 08:36:56;;;;;;;;;2.00;2.00;;;;;13.77;100.00;96755.81;6261513;27;96389;-59
2024/01/03 08:40:00;;;;;;;;;1.80;1.80;;;;;13.75;100.00;96766.09;6263439;27;96304;-59
2024/01/03 08:43:05;;;;;;;;;3.00;2.40;;;;;13.76;100.00;96760.41;6232142;27;96654;-59
2024/01/03 08:46:10;;;;;;;;;3.00;3.00;;;;;13.78;100.00;96777.16;6245078;27;96962;-59
2024/01/03 08:49:13;;;;;;;;;2.00;2.00;;;;;13.90;100.00;96782.13;6223949;28;96364;-60
2024/01/03 08:52:17;;;;;;;;;2.00;2.00;;;;;13.98;100.00;96784.16;6247958;27;96185;-59
2024/01/03 08:55:20;;;;;;;;;1.50;1.50;;;;;14.01;100.00;96799.03;6251511;27;96438;-58
2024/01/03 08:58:23;;;;;;;;;2.00;2.00;;;;;13.86;100.00;96792.75;6245026;27;96668;-59
2024/01/03 09:01:29;;;;;;;;;2.00;2.00;;;;;13.92;100.00;96790.78;6221153;28;98812;-58
2024/01/03 09:04:32;;;;;;;;;2.00;2.00;;;;;13.97;100.00;96789.91;6236723;28;96905;-58
2024/01/03 09:07:35;;;;;;;;;3.20;2.00;;;;;14.15;100.00;96789.06;6238312;27;96825;-58
2024/01/03 09:10:38;;;;;;;;;1.00;1.00;;;;;14.28;100.00;96788.31;6251820;27;96955;-59
2024/01/03 09:13:41;;;;;;;;;2.00;1.50;;;;;14.18;100.00;96783.03;6250932;27;96488;-58
2024/01/03 09:16:46;;;;;;;;;2.60;2.00;;;;;14.28;100.00;96780.16;6250615;27;97745;-59
2024/01/03 09:19:49;;;;;;;;;3.00;2.00;;;;;14.35;100.00;96777.09;6252177;27;96370;-59
2024/01/03 09:22:53;;;;;;;;;3.00;3.00;;;;;14.35;100.00;96774.38;6241137;27;96485;-59
2024/01/03 09:25:56;;;;;;;;;2.60;2.60;;;;;14.71;100.00;96770.75;6246586;27;96369;-58
2024/01/03 09:28:59;;;;;;;;;3.00;3.00;;;;;15.76;100.00;96768.13;6220222;28;96529;-59
2024/01/03 09:32:07;;;;;;;;;1.50;1.50;;;;;15.92;100.00;96778.34;6239238;27;96620;-59
2024/01/03 09:35:11;;;;;;;;;3.00;3.00;;;;;15.89;100.00;96792.53;6263655;27;96435;-59
2024/01/03 09:38:14;;;;;;;;;2.20;2.00;;;;;15.74;100.00;96779.28;6248692;27;97416;-59
2024/01/03 09:41:18;;;;;;;;;1.00;1.00;;;;;16.03;100.00;96787.03;6245154;27;96921;-59
2024/01/03 09:44:22;;;;;;;;;2.00;2.00;;;;;16.34;100.00;96792.56;6259477;27;96979;-59
2024/01/03 09:47:26;;;;;;;;;1.00;1.00;;;;;18.68;100.00;96798.34;6253741;27;96349;-59
2024/01/03 09:50:29;;;;;;;;;2.00;2.00;;;;;20.42;100.00;96798.75;6242681;27;97032;-59
2024/01/03 09:53:33;;;;;;;;;2.00;2.00;;;;;21.45;100.00;96794.88;6239868;27;96929;-59
2024/01/03 09:56:39;;;;;;;;;3.00;3.00;;;;;24.42;100.00;96804.09;6237696;27;96829;-60
2024/01/03 09:59:42;;;;;;;;;1.00;1.00;;;;;27.15;100.00;96804.50;6238660;27;96618;-60
2024/01/03 10:02:47;;;;;;;;;1.00;1.00;;;;;27.21;100.00;96790.31;6249498;27;96429;-60
2024/01/03 10:06:05;;;;;;;;;2.00;2.00;;;;;25.78;100.00;96803.47;6243116;27;96914;-60
2024/01/03 10:09:11;;;;;;;;;3.00;2.00;;;;;24.11;100.00;96800.25;6241547;27;96844;-60
2024/01/03 10:12:18;;;;;;;;;1.00;1.00;;;;;22.85;100.00;96791.28;6239294;27;96385;-59
2024/01/03 10:15:23;;;;;;;;;2.50;2.50;;;;;21.93;100.00;96785.88;6243422;27;96501;-59
2024/01/03 10:18:27;;;;;;;;;1.00;1.00;;;;;21.53;100.00;96787.69;6242425;27;96941;-59
2024/01/03 10:21:31;;;;;;;;;1.00;1.00;;;;;21.20;100.00;96792.50;6243734;27;96287;-59
2024/01/03 10:24:42;;;;;;;;;1.80;1.80;;;;;21.07;100.00;96803.38;6219163;28;96471;-59
2024/01/03 10:28:00;;;;;;;;;4.00;3.00;;;;;24.30;100.00;96802.25;6249076;27;96220;-60
2024/01/03 10:31:07;;;;;;;;;1.00;1.00;;;;;27.13;100.00;96790.25;6249819;27;96496;-60
2024/01/03 10:34:15;;;;;;;;;1.80;1.00;;;;;29.89;95.63;96801.13;6259720;27;96362;-60
2024/01/03 10:37:20;;;;;;;;;1.50;1.50;;;;;29.97;89.59;96803.50;6242062;27;96296;-60
2024/01/03 10:40:25;;;;;;;;;2.00;1.75;;;;;28.42;94.05;96809.47;6254938;27;96996;-60
2024/01/03 10:43:30;;;;;;;;;2.00;1.40;;;;;26.48;100.00;96808.44;6253544;27;96469;-60
2024/01/03 10:46:33;;;;;;;;;1.00;1.00;;;;;25.45;100.00;96810.41;6230861;27;98787;-60
2024/01/03 10:49:38;;;;;;;;;1.50;1.50;;;;;24.75;100.00;96803.56;6266633;27;96365;-60
2024/01/03 10:52:43;;;;;;;;;1.80;1.00;;;;;23.77;100.00;96805.75;6246177;27;96521;-60
2024/01/03 10:55:48;;;;;;;;;2.00;2.00;;;;;22.65;100.00;96802.44;6253185;27;97555;-59
2024/01/03 10:58:52;;;;;;;;;1.00;1.00;;;;;21.83;100.00;96816.47;6253968;27;96504;-59
2024/01/03 11:02:02;;;;;;;;;1.00;1.00;;;;;21.09;100.00;96795.66;6251307;27;96379;-59
2024/01/03 11:05:15;;;;;;;;;1.00;1.00;;;;;21.57;100.00;96792.16;6245305;27;96510;-59
2024/01/03 11:08:25;;;;;;;;;1.40;1.00;;;;;21.82;100.00;96792.94;6229871;27;96756;-59
2024/01/03 11:11:29;;;;;;;;;3.00;3.00;;;;;22.61;100.00;96785.06;6233771;27;96820;-59
2024/01/03 11:14:32;;;;;;;;;2.00;2.00;;;;;23.70;100.00;96790.66;6242953;27;96543;-59
2024/01/03 11:17:35;;;;;;;;;1.20;1.20;;;;;23.64;100.00;96799.56;6252217;27;96504;-59
2024/01/03 11:20:41;;;;;;;;;2.00;2.00;;;;;23.86;100.00;96804.41;6238491;28;96994;-59
2024/01/03 11:23:45;;;;;;;;;2.00;2.00;;;;;22.86;100.00;96800.31;6240624;28;96544;-60
2024/01/03 11:27:03;;;;;;;;;2.00;1.00;;;;;21.63;100.00;96795.47;6248007;27;96494;-60
2024/01/03 11:30:28;;;;;;;;;1.00;1.00;;;;;20.99;100.00;96798.81;6264184;27;96694;-59
2024/01/03 11:33:31;;;;;;;;;2.00;2.00;;;;;20.65;100.00;96797.25;6255480;27;96673;-59
2024/01/03 11:36:47;;;;;;;;;2.00;2.00;;;;;20.17;100.00;96786.06;6245125;27;97664;-59
2024/01/03 11:39:51;;;;;;;;;2.20;1.80;;;;;20.28;100.00;96774.34;6266311;27;96398;-59
2024/01/03 11:42:57;;;;;;;;;2.20;2.20;;;;;20.40;100.00;96801.03;6265572;27;96398;-59
2024/01/03 11:46:11;;;;;;;;;2.00;1.00;;;;;19.78;100.00;96776.38;6264237;27;96461;-59
2024/01/03 11:49:14;;;;;;;;;1.00;0.00;;;;;19.37;100.00;96779.81;6264253;27;96310;-59
2024/01/03 11:52:19;;;;;;;;;1.75;1.75;;;;;20.07;100.00;96787.28;6245712;27;96769;-59
2024/01/03 11:55:23;;;;;;;;;3.00;1.00;;;;;19.88;100.00;96785.00;6262174;27;98693;-59
2024/01/03 11:58:28;;;;;;;;;1.60;1.00;;;;;20.98;100.00;96778.03;6250940;27;99586;-56
2024/01/03 12:01:32;;;;;;;;;1.25;1.25;;;;;21.68;100.00;96788.94;6277646;27;96335;-56
2024/01/03 12:04:41;;;;;;;;;1.00;1.00;;;;;22.09;100.00;96785.16;6278010;27;96671;-55
2024/01/03 12:07:46;;;;;;;;;2.00;2.00;;;;;21.89;100.00;96795.09;6278395;27;96475;-55
2024/01/03 12:10:54;;;;;;;;;3.00;2.00;;;;;22.71;100.00;96784.59;6280253;27;96375;-54
2024/01/03 12:13:57;;;;;;;;;2.00;2.00;;;;;23.78;100.00;96783.41;6257143;27;97124;-55
2024/01/03 12:17:01;;;;;;;;;2.00;2.00;;;;;24.49;100.00;96790.44;6258897;27;96437;-55
2024/01/03 12:20:08;;;;;;;;;3.40;3.00;;;;;23.90;100.00;96788.78;6248104;27;96891;-56
2024/01/03 12:23:14;;;;;;;;;3.40;2.00;;;;;22.93;100.00;96786.75;6258659;27;96318;-55
2024/01/03 12:26:19;;;;;;;;;1.00;1.00;;;;;21.72;100.00;96792.59;6259865;27;96306;-55
2024/01/03 12:29:22;;;;;;;;;2.00;2.00;;;;;20.92;100.00;96787.59;6257354;27;96299;-55
2024/01/03 12:32:25;;;;;;;;;2.00;2.00;;;;;20.19;100.00;96787.31;6261390;27;96326;-55
2024/01/03 12:35:28;;;;;;;;;2.00;2.00;;;;;19.58;100.00;96796.28;6273822;27;96519;-54
2024/01/03 12:38:33;;;;;;;;;1.00;1.00;;;;;19.23;100.00;96782.75;6262247;27;96365;-55
2024/01/03 12:41:36;;;;;;;;;2.00;2.00;;;;;18.73;100.00;96788.06;6269055;27;96388;-55
2024/01/03 12:44:42;;;;;;;;;2.00;2.00;;;;;18.47;100.00;96776.41;6254543;27;96325;-56
2024/01/03 12:47:46;;;;;;;;;2.00;2.00;;;;;18.08;100.00;96794.53;6278433;27;96381;-55
2024/01/03 12:50:49;;;;;;;;;2.40;2.40;;;;;17.74;100.00;96791.78;6277909;27;96263;-55
2024/01/03 12:53:53;;;;;;;;;2.00;2.00;;;;;17.55;100.00;96788.50;6268639;27;96828;-55
2024/01/03 12:56:57;;;;;;;;;2.00;2.00;;;;;17.31;100.00;96780.75;6276346;27;96360;-55
2024/01/03 13:00:01;;;;;;;;;1.00;1.00;;;;;17.19;100.00;96796.91;6254650;28;96258;-56
2024/01/03 13:03:07;;;;;;;;;3.00;3.00;;;;;17.19;100.00;96783.28;6253608;28;96321;-55
2024/01/03 13:06:11;;;;;;;;;2.80;2.80;;;;;17.09;100.00;96783.56;6254410;27;96352;-55
2024/01/03 13:09:23;;;;;;;;;1.00;1.00;;;;;16.93;100.00;96791.34;6253293;27;96891;-59
2024/01/03 13:12:27;;;;;;;;;2.40;2.00;;;;;16.80;100.00;96786.81;6257257;27;96214;-59
2024/01/03 13:15:30;;;;;;;;;2.00;2.00;;;;;16.69;100.00;96791.69;6251628;27;96340;-59
2024/01/03 13:18:34;;;;;;;;;3.00;3.00;;;;;16.54;100.00;96791.25;6220061;28;96363;-59
2024/01/03 13:21:37;;;;;;;;;3.00;2.00;;;;;16.43;100.00;96801.56;6258769;27;96324;-59
2024/01/03 13:24:42;;;;;;;;;2.40;2.40;;;;;16.06;100.00;96767.41;6254031;27;96348;-59
2024/01/03 13:27:45;;;;;;;;;3.00;3.00;;;;;16.16;100.00;96794.34;6253547;27;97389;-59
2024/01/03 13:30:49;;;;;;;;;2.67;2.67;;;;;16.01;100.00;96802.88;6250021;27;97520;-59
2024/01/03 13:33:54;;;;;;;;;3.00;3.00;;;;;15.85;100.00;96807.03;6246129;27;96830;-59
2024/01/03 13:36:57;;;;;;;;;3.40;2.00;;;;;15.75;100.00;96818.91;6249435;27;96494;-59
2024/01/03 13:40:02;;;;;;;;;2.00;2.00;;;;;15.57;100.00;96809.00;6249245;27;96907;-59
2024/01/03 13:43:06;;;;;;;;;2.00;2.00;;;;;15.57;100.00;96790.78;6231469;27;96548;-59
2024/01/03 13:46:13;;;;;;;;;2.00;2.00;;;;;15.36;100.00;96830.31;6245952;27;96344;-59
2024/01/03 13:49:16;;;;;;;;;1.00;1.00;;;;;15.33;100.00;96824.69;6249324;27;96320;-59
2024/01/03 13:52:19;;;;;;;;;2.00;2.00;;;;;15.31;100.00;96821.44;6247926;27;96612;-58
2024/01/03 13:55:24;;;;;;;;;3.00;3.00;;;;;15.13;100.00;96826.69;6245392;27;96768;-59
2024/01/03 13:58:27;;;;;;;;;2.00;2.00;;;;;15.08;100.00;96815.13;6244925;27;96737;-59
2024/01/03 14:01:30;;;;;;;;;2.00;2.00;;;;;15.02;100.00;96827.16;6241330;27;96532;-59
2024/01/03 14:04:34;;;;;;;;;2.00;2.00;;;;;14.91;100.00;96812.97;6252473;27;96565;-59
2024/01/03 14:07:37;;;;;;;;;2.00;1.20;;;;;15.02;100.00;96803.56;6249658;27;96494;-59
2024/01/03 14:10:41;;;;;;;;;3.00;2.40;;;;;15.09;100.00;96825.69;6249579;27;96569;-59
2024/01/03 14:13:45;;;;;;;;;3.00;3.00;;;;;15.12;100.00;96825.06;6252499;27;97985;-59
2024/01/03 14:16:48;;;;;;;;;2.00;2.00;;;;;15.11;100.00;96819.94;6249361;27;96564;-59